sensor_id;sensor_type;location;lat;lon;timestamp;temperature;humidity
80560;DHT22;69902;42.660;23.366;2023-05-07T00:01:38;22.20;49.00
80560;DHT22;69902;42.660;23.366;2023-05-07T00:04:04;22.20;49.00
80560;DHT22;69902;42.660;23.366;2023-05-07T00:06:31;22.10;49.10
80560;DHT22;69902;42.660;23.366;2023-05-07T00:08:59;22.10;49.00
80560;DHT22;69902;42.660;23.366;2023-05-07T00:11:25;22.10;49.10
80560;DHT22;69902;42.660;23.366;2023-05-07T00:13:51;22.10;49.20
80560;DHT22;69902;42.660;23.366;2023-05-07T00:16:17;22.10;49.10
80560;DHT22;69902;42.660;23.366;2023-05-07T00:18:43;22.10;49.10
80560;DHT22;69902;42.660;23.366;2023-05-07T00:21:08;22.10;49.10
80560;DHT22;69902;42.660;23.366;2023-05-07T00:23:34;22.10;49.10
80560;DHT22;69902;42.660;23.366;2023-05-07T00:26:00;22.10;49.00
80560;DHT22;69902;42.660;23.366;2023-05-07T00:28:25;22.10;49.10
80560;DHT22;69902;42.660;23.366;2023-05-07T00:30:51;22.10;49.00
80560;DHT22;69902;42.660;23.366;2023-05-07T00:33:17;22.10;49.00
80560;DHT22;69902;42.660;23.366;2023-05-07T00:35:42;22.10;50.00
80560;DHT22;69902;42.660;23.366;2023-05-07T00:38:08;22.10;49.10
80560;DHT22;69902;42.660;23.366;2023-05-07T00:40:34;22.10;49.00
80560;DHT22;69902;42.660;23.366;2023-05-07T00:43:00;22.10;49.00
80560;DHT22;69902;42.660;23.366;2023-05-07T00:45:29;22.10;49.10
80560;DHT22;69902;42.660;23.366;2023-05-07T00:48:00;22.10;49.00
80560;DHT22;69902;42.660;23.366;2023-05-07T00:50:27;22.10;49.10
80560;DHT22;69902;42.660;23.366;2023-05-07T00:52:54;22.10;49.00
80560;DHT22;69902;42.660;23.366;2023-05-07T00:55:21;22.10;49.00
80560;DHT22;69902;42.660;23.366;2023-05-07T00:57:46;22.10;49.00
80560;DHT22;69902;42.660;23.366;2023-05-07T01:00:13;22.10;49.00
80560;DHT22;69902;42.660;23.366;2023-05-07T01:02:39;22.10;49.00
80560;DHT22;69902;42.660;23.366;2023-05-07T01:05:06;22.10;49.00
80560;DHT22;69902;42.660;23.366;2023-05-07T01:07:33;22.10;49.00
80560;DHT22;69902;42.660;23.366;2023-05-07T01:10:00;22.10;49.00
80560;DHT22;69902;42.660;23.366;2023-05-07T01:12:28;22.10;49.00
80560;DHT22;69902;42.660;23.366;2023-05-07T01:14:55;22.10;49.10
80560;DHT22;69902;42.660;23.366;2023-05-07T01:17:20;22.10;49.10
80560;DHT22;69902;42.660;23.366;2023-05-07T01:19:46;22.10;49.00
80560;DHT22;69902;42.660;23.366;2023-05-07T01:22:15;22.10;49.00
80560;DHT22;69902;42.660;23.366;2023-05-07T01:24:42;22.10;48.90
80560;DHT22;69902;42.660;23.366;2023-05-07T01:27:08;22.10;48.90
80560;DHT22;69902;42.660;23.366;2023-05-07T01:29:34;22.10;49.00
80560;DHT22;69902;42.660;23.366;2023-05-07T01:32:01;22.00;48.90
80560;DHT22;69902;42.660;23.366;2023-05-07T01:34:32;22.10;48.90
80560;DHT22;69902;42.660;23.366;2023-05-07T01:36:59;22.10;48.90
80560;DHT22;69902;42.660;23.366;2023-05-07T01:39:27;22.10;48.90
80560;DHT22;69902;42.660;23.366;2023-05-07T01:41:56;22.00;48.90
80560;DHT22;69902;42.660;23.366;2023-05-07T01:44:22;22.00;48.90
80560;DHT22;69902;42.660;23.366;2023-05-07T01:46:49;22.10;48.90
80560;DHT22;69902;42.660;23.366;2023-05-07T01:49:16;22.00;48.80
80560;DHT22;69902;42.660;23.366;2023-05-07T01:51:43;22.10;48.80
80560;DHT22;69902;42.660;23.366;2023-05-07T01:54:09;22.10;48.90
80560;DHT22;69902;42.660;23.366;2023-05-07T01:56:34;22.00;48.90
80560;DHT22;69902;42.660;23.366;2023-05-07T01:59:00;22.00;49.00
80560;DHT22;69902;42.660;23.366;2023-05-07T02:01:27;22.00;49.10
80560;DHT22;69902;42.660;23.366;2023-05-07T02:03:53;22.00;49.00
80560;DHT22;69902;42.660;23.366;2023-05-07T02:06:19;22.00;49.00
80560;DHT22;69902;42.660;23.366;2023-05-07T02:08:45;22.00;48.80
80560;DHT22;69902;42.660;23.366;2023-05-07T02:11:11;22.00;48.90
80560;DHT22;69902;42.660;23.366;2023-05-07T02:13:37;22.00;48.60
80560;DHT22;69902;42.660;23.366;2023-05-07T02:16:03;22.00;48.70
80560;DHT22;69902;42.660;23.366;2023-05-07T02:18:29;22.00;48.60
80560;DHT22;69902;42.660;23.366;2023-05-07T02:20:54;22.00;48.50
80560;DHT22;69902;42.660;23.366;2023-05-07T02:23:20;22.00;48.40
80560;DHT22;69902;42.660;23.366;2023-05-07T02:25:46;22.00;48.50
80560;DHT22;69902;42.660;23.366;2023-05-07T02:28:12;22.00;48.40
80560;DHT22;69902;42.660;23.366;2023-05-07T02:30:38;22.00;48.40
80560;DHT22;69902;42.660;23.366;2023-05-07T02:33:04;22.00;48.40
80560;DHT22;69902;42.660;23.366;2023-05-07T02:35:30;22.00;48.30
80560;DHT22;69902;42.660;23.366;2023-05-07T02:37:55;22.00;48.30
80560;DHT22;69902;42.660;23.366;2023-05-07T02:40:21;22.00;48.20
80560;DHT22;69902;42.660;23.366;2023-05-07T02:42:47;21.90;48.10
80560;DHT22;69902;42.660;23.366;2023-05-07T02:45:12;22.00;48.20
80560;DHT22;69902;42.660;23.366;2023-05-07T02:47:39;22.00;48.20
80560;DHT22;69902;42.660;23.366;2023-05-07T02:50:06;21.90;48.00
80560;DHT22;69902;42.660;23.366;2023-05-07T02:52:31;22.00;48.10
80560;DHT22;69902;42.660;23.366;2023-05-07T02:54:57;22.00;48.10
80560;DHT22;69902;42.660;23.366;2023-05-07T02:57:23;22.00;48.00
80560;DHT22;69902;42.660;23.366;2023-05-07T02:59:48;22.00;48.00
80560;DHT22;69902;42.660;23.366;2023-05-07T03:02:14;22.00;48.00
80560;DHT22;69902;42.660;23.366;2023-05-07T03:04:40;22.00;47.90
80560;DHT22;69902;42.660;23.366;2023-05-07T03:07:05;22.00;47.90
80560;DHT22;69902;42.660;23.366;2023-05-07T03:09:31;22.00;47.90
80560;DHT22;69902;42.660;23.366;2023-05-07T03:11:57;21.90;47.80
80560;DHT22;69902;42.660;23.366;2023-05-07T03:14:22;21.90;47.90
80560;DHT22;69902;42.660;23.366;2023-05-07T03:16:49;22.00;48.00
80560;DHT22;69902;42.660;23.366;2023-05-07T03:19:15;22.00;47.80
80560;DHT22;69902;42.660;23.366;2023-05-07T03:21:41;21.90;47.80
80560;DHT22;69902;42.660;23.366;2023-05-07T03:24:07;22.00;48.00
80560;DHT22;69902;42.660;23.366;2023-05-07T03:26:32;22.00;47.80
80560;DHT22;69902;42.660;23.366;2023-05-07T03:28:58;22.00;47.80
80560;DHT22;69902;42.660;23.366;2023-05-07T03:31:24;21.90;47.70
80560;DHT22;69902;42.660;23.366;2023-05-07T03:33:51;22.00;47.70
80560;DHT22;69902;42.660;23.366;2023-05-07T03:36:17;22.00;47.70
80560;DHT22;69902;42.660;23.366;2023-05-07T03:38:43;22.00;47.60
80560;DHT22;69902;42.660;23.366;2023-05-07T03:41:09;22.10;47.50
80560;DHT22;69902;42.660;23.366;2023-05-07T03:43:35;22.10;47.50
80560;DHT22;69902;42.660;23.366;2023-05-07T03:46:00;22.20;47.30
80560;DHT22;69902;42.660;23.366;2023-05-07T03:48:26;22.20;47.20
80560;DHT22;69902;42.660;23.366;2023-05-07T03:50:52;22.20;47.20
80560;DHT22;69902;42.660;23.366;2023-05-07T03:53:17;22.20;47.10
80560;DHT22;69902;42.660;23.366;2023-05-07T03:55:43;22.30;47.10
80560;DHT22;69902;42.660;23.366;2023-05-07T03:58:09;22.30;46.90
80560;DHT22;69902;42.660;23.366;2023-05-07T04:00:34;22.30;47.00
80560;DHT22;69902;42.660;23.366;2023-05-07T04:03:04;22.30;46.90
80560;DHT22;69902;42.660;23.366;2023-05-07T04:05:30;22.40;46.90
80560;DHT22;69902;42.660;23.366;2023-05-07T04:07:58;22.40;46.90
80560;DHT22;69902;42.660;23.366;2023-05-07T04:10:24;22.40;46.80
80560;DHT22;69902;42.660;23.366;2023-05-07T04:12:49;22.50;46.80
80560;DHT22;69902;42.660;23.366;2023-05-07T04:15:15;22.60;46.60
80560;DHT22;69902;42.660;23.366;2023-05-07T04:17:41;22.60;46.40
80560;DHT22;69902;42.660;23.366;2023-05-07T04:20:09;22.70;46.40
80560;DHT22;69902;42.660;23.366;2023-05-07T04:22:36;22.70;46.20
80560;DHT22;69902;42.660;23.366;2023-05-07T04:25:02;22.80;46.10
80560;DHT22;69902;42.660;23.366;2023-05-07T04:27:28;22.80;46.00
80560;DHT22;69902;42.660;23.366;2023-05-07T04:29:54;22.90;45.90
80560;DHT22;69902;42.660;23.366;2023-05-07T04:32:22;23.00;45.80
80560;DHT22;69902;42.660;23.366;2023-05-07T04:34:47;23.10;45.70
80560;DHT22;69902;42.660;23.366;2023-05-07T04:37:13;23.10;45.60
80560;DHT22;69902;42.660;23.366;2023-05-07T04:39:39;23.10;45.40
80560;DHT22;69902;42.660;23.366;2023-05-07T04:42:04;23.20;45.40
80560;DHT22;69902;42.660;23.366;2023-05-07T04:44:32;23.20;45.20
80560;DHT22;69902;42.660;23.366;2023-05-07T04:46:59;23.30;45.20
80560;DHT22;69902;42.660;23.366;2023-05-07T04:49:25;23.30;45.10
80560;DHT22;69902;42.660;23.366;2023-05-07T04:51:51;23.30;44.90
80560;DHT22;69902;42.660;23.366;2023-05-07T04:54:16;23.40;44.90
80560;DHT22;69902;42.660;23.366;2023-05-07T04:56:42;23.40;44.70
80560;DHT22;69902;42.660;23.366;2023-05-07T04:59:08;23.50;44.60
80560;DHT22;69902;42.660;23.366;2023-05-07T05:01:33;23.50;44.40
80560;DHT22;69902;42.660;23.366;2023-05-07T05:03:59;23.60;44.30
80560;DHT22;69902;42.660;23.366;2023-05-07T05:06:25;23.70;44.40
80560;DHT22;69902;42.660;23.366;2023-05-07T05:08:51;23.70;44.30
80560;DHT22;69902;42.660;23.366;2023-05-07T05:11:17;23.70;44.20
80560;DHT22;69902;42.660;23.366;2023-05-07T05:13:42;23.80;44.10
80560;DHT22;69902;42.660;23.366;2023-05-07T05:16:08;23.80;44.00
80560;DHT22;69902;42.660;23.366;2023-05-07T05:18:34;23.80;43.90
80560;DHT22;69902;42.660;23.366;2023-05-07T05:21:00;23.90;43.90
80560;DHT22;69902;42.660;23.366;2023-05-07T05:23:26;24.00;43.90
80560;DHT22;69902;42.660;23.366;2023-05-07T05:25:56;24.00;43.80
80560;DHT22;69902;42.660;23.366;2023-05-07T05:28:23;24.00;43.70
80560;DHT22;69902;42.660;23.366;2023-05-07T05:30:49;24.00;43.70
80560;DHT22;69902;42.660;23.366;2023-05-07T05:33:15;24.10;43.60
80560;DHT22;69902;42.660;23.366;2023-05-07T05:35:41;24.10;43.50
80560;DHT22;69902;42.660;23.366;2023-05-07T05:38:06;24.10;43.40
80560;DHT22;69902;42.660;23.366;2023-05-07T05:40:32;24.20;43.50
80560;DHT22;69902;42.660;23.366;2023-05-07T05:42:58;24.20;43.50
80560;DHT22;69902;42.660;23.366;2023-05-07T05:45:24;24.30;43.50
80560;DHT22;69902;42.660;23.366;2023-05-07T05:47:50;24.30;43.50
80560;DHT22;69902;42.660;23.366;2023-05-07T05:50:16;24.30;43.40
80560;DHT22;69902;42.660;23.366;2023-05-07T05:52:41;24.40;43.40
80560;DHT22;69902;42.660;23.366;2023-05-07T05:55:08;24.40;43.30
80560;DHT22;69902;42.660;23.366;2023-05-07T05:57:34;24.40;43.30
80560;DHT22;69902;42.660;23.366;2023-05-07T06:00:00;24.40;43.20
80560;DHT22;69902;42.660;23.366;2023-05-07T06:02:26;24.50;43.20
80560;DHT22;69902;42.660;23.366;2023-05-07T06:04:52;24.50;43.20
80560;DHT22;69902;42.660;23.366;2023-05-07T06:07:18;24.50;43.10
80560;DHT22;69902;42.660;23.366;2023-05-07T06:09:43;24.50;44.00
80560;DHT22;69902;42.660;23.366;2023-05-07T06:12:09;24.50;44.00
80560;DHT22;69902;42.660;23.366;2023-05-07T06:14:35;24.60;43.00
80560;DHT22;69902;42.660;23.366;2023-05-07T06:17:00;24.70;43.00
80560;DHT22;69902;42.660;23.366;2023-05-07T06:19:26;24.70;43.00
80560;DHT22;69902;42.660;23.366;2023-05-07T06:21:53;24.70;42.80
80560;DHT22;69902;42.660;23.366;2023-05-07T06:24:19;24.70;42.80
80560;DHT22;69902;42.660;23.366;2023-05-07T06:26:45;24.70;42.80
80560;DHT22;69902;42.660;23.366;2023-05-07T06:29:10;24.80;42.70
80560;DHT22;69902;42.660;23.366;2023-05-07T06:31:36;24.80;42.70
80560;DHT22;69902;42.660;23.366;2023-05-07T06:34:02;24.80;42.70
80560;DHT22;69902;42.660;23.366;2023-05-07T06:36:28;24.80;42.70
80560;DHT22;69902;42.660;23.366;2023-05-07T06:38:54;24.80;42.70
80560;DHT22;69902;42.660;23.366;2023-05-07T06:41:20;24.90;42.70
80560;DHT22;69902;42.660;23.366;2023-05-07T06:43:46;24.90;42.70
80560;DHT22;69902;42.660;23.366;2023-05-07T06:46:11;24.90;42.60
80560;DHT22;69902;42.660;23.366;2023-05-07T06:48:37;25.00;42.50
80560;DHT22;69902;42.660;23.366;2023-05-07T06:51:03;25.00;42.50
80560;DHT22;69902;42.660;23.366;2023-05-07T06:53:28;25.00;42.50
80560;DHT22;69902;42.660;23.366;2023-05-07T06:55:56;25.00;42.50
80560;DHT22;69902;42.660;23.366;2023-05-07T06:58:22;25.00;42.40
80560;DHT22;69902;42.660;23.366;2023-05-07T07:00:47;25.00;42.30
80560;DHT22;69902;42.660;23.366;2023-05-07T07:03:13;25.10;42.40
80560;DHT22;69902;42.660;23.366;2023-05-07T07:05:41;25.10;42.40
80560;DHT22;69902;42.660;23.366;2023-05-07T07:08:07;25.20;42.40
80560;DHT22;69902;42.660;23.366;2023-05-07T07:10:32;25.20;42.30
80560;DHT22;69902;42.660;23.366;2023-05-07T07:12:58;25.20;42.30
80560;DHT22;69902;42.660;23.366;2023-05-07T07:15:24;25.20;42.30
80560;DHT22;69902;42.660;23.366;2023-05-07T07:17:50;25.20;42.30
80560;DHT22;69902;42.660;23.366;2023-05-07T07:20:16;25.20;42.30
80560;DHT22;69902;42.660;23.366;2023-05-07T07:22:42;25.20;42.30
80560;DHT22;69902;42.660;23.366;2023-05-07T07:25:08;25.20;42.40
80560;DHT22;69902;42.660;23.366;2023-05-07T07:27:34;25.20;42.30
80560;DHT22;69902;42.660;23.366;2023-05-07T07:30:00;25.20;42.20
80560;DHT22;69902;42.660;23.366;2023-05-07T07:32:25;25.20;42.30
80560;DHT22;69902;42.660;23.366;2023-05-07T07:34:51;25.20;42.30
80560;DHT22;69902;42.660;23.366;2023-05-07T07:37:17;25.20;42.20
80560;DHT22;69902;42.660;23.366;2023-05-07T07:39:43;25.30;42.30
80560;DHT22;69902;42.660;23.366;2023-05-07T07:42:08;25.20;42.20
80560;DHT22;69902;42.660;23.366;2023-05-07T07:44:34;25.20;42.10
80560;DHT22;69902;42.660;23.366;2023-05-07T07:47:00;25.20;42.20
80560;DHT22;69902;42.660;23.366;2023-05-07T07:49:26;25.20;42.20
80560;DHT22;69902;42.660;23.366;2023-05-07T07:51:52;25.20;42.20
80560;DHT22;69902;42.660;23.366;2023-05-07T07:54:17;25.20;42.20
80560;DHT22;69902;42.660;23.366;2023-05-07T07:56:43;25.30;42.10
80560;DHT22;69902;42.660;23.366;2023-05-07T07:59:09;25.20;40.70
80560;DHT22;69902;42.660;23.366;2023-05-07T08:01:34;24.70;39.60
80560;DHT22;69902;42.660;23.366;2023-05-07T08:04:00;24.50;40.80
80560;DHT22;69902;42.660;23.366;2023-05-07T08:06:28;24.30;41.00
80560;DHT22;69902;42.660;23.366;2023-05-07T08:08:54;24.50;40.60
80560;DHT22;69902;42.660;23.366;2023-05-07T08:11:20;24.70;41.10
80560;DHT22;69902;42.660;23.366;2023-05-07T08:13:46;24.70;41.00
80560;DHT22;69902;42.660;23.366;2023-05-07T08:16:12;24.70;41.30
80560;DHT22;69902;42.660;23.366;2023-05-07T08:18:38;24.80;40.20
80560;DHT22;69902;42.660;23.366;2023-05-07T08:21:04;24.80;41.30
80560;DHT22;69902;42.660;23.366;2023-05-07T08:23:30;24.80;41.20
80560;DHT22;69902;42.660;23.366;2023-05-07T08:25:55;24.50;39.80
80560;DHT22;69902;42.660;23.366;2023-05-07T08:28:21;24.10;40.10
80560;DHT22;69902;42.660;23.366;2023-05-07T08:30:47;23.90;41.90
80560;DHT22;69902;42.660;23.366;2023-05-07T08:33:13;23.70;39.80
80560;DHT22;69902;42.660;23.366;2023-05-07T08:35:38;23.90;41.40
80560;DHT22;69902;42.660;23.366;2023-05-07T08:38:04;23.90;40.70
80560;DHT22;69902;42.660;23.366;2023-05-07T08:40:36;23.70;42.90
80560;DHT22;69902;42.660;23.366;2023-05-07T08:43:02;23.90;39.70
80560;DHT22;69902;42.660;23.366;2023-05-07T08:45:30;23.60;41.30
80560;DHT22;69902;42.660;23.366;2023-05-07T08:47:59;23.90;42.80
80560;DHT22;69902;42.660;23.366;2023-05-07T08:50:25;24.30;42.40
80560;DHT22;69902;42.660;23.366;2023-05-07T08:52:51;24.30;39.50
80560;DHT22;69902;42.660;23.366;2023-05-07T08:55:17;24.00;41.80
80560;DHT22;69902;42.660;23.366;2023-05-07T08:57:43;24.20;40.40
80560;DHT22;69902;42.660;23.366;2023-05-07T09:00:09;23.90;38.80
80560;DHT22;69902;42.660;23.366;2023-05-07T09:02:35;23.70;38.80
80560;DHT22;69902;42.660;23.366;2023-05-07T09:05:01;23.80;38.60
80560;DHT22;69902;42.660;23.366;2023-05-07T09:07:27;23.70;38.40
80560;DHT22;69902;42.660;23.366;2023-05-07T09:09:53;23.90;39.00
80560;DHT22;69902;42.660;23.366;2023-05-07T09:12:21;24.10;41.80
80560;DHT22;69902;42.660;23.366;2023-05-07T09:14:47;24.30;41.80
80560;DHT22;69902;42.660;23.366;2023-05-07T09:17:13;24.40;38.20
80560;DHT22;69902;42.660;23.366;2023-05-07T09:19:39;24.40;40.80
80560;DHT22;69902;42.660;23.366;2023-05-07T09:22:05;24.50;40.80
80560;DHT22;69902;42.660;23.366;2023-05-07T09:24:32;24.50;40.90
80560;DHT22;69902;42.660;23.366;2023-05-07T09:27:06;24.60;38.80
80560;DHT22;69902;42.660;23.366;2023-05-07T09:29:33;24.60;40.20
80560;DHT22;69902;42.660;23.366;2023-05-07T09:32:05;24.60;40.70
80560;DHT22;69902;42.660;23.366;2023-05-07T09:34:31;24.60;40.80
80560;DHT22;69902;42.660;23.366;2023-05-07T09:37:00;24.20;37.10
80560;DHT22;69902;42.660;23.366;2023-05-07T09:39:26;24.10;40.80
80560;DHT22;69902;42.660;23.366;2023-05-07T09:41:52;24.10;40.60
80560;DHT22;69902;42.660;23.366;2023-05-07T09:44:20;24.20;37.90
80560;DHT22;69902;42.660;23.366;2023-05-07T09:46:53;24.20;40.30
80560;DHT22;69902;42.660;23.366;2023-05-07T09:49:23;24.30;40.40
80560;DHT22;69902;42.660;23.366;2023-05-07T09:51:51;24.40;40.90
80560;DHT22;69902;42.660;23.366;2023-05-07T09:54:18;24.40;40.80
80560;DHT22;69902;42.660;23.366;2023-05-07T09:56:45;24.40;38.90
80560;DHT22;69902;42.660;23.366;2023-05-07T09:59:13;24.10;37.10
80560;DHT22;69902;42.660;23.366;2023-05-07T10:01:41;24.00;37.20
80560;DHT22;69902;42.660;23.366;2023-05-07T10:04:07;24.10;41.20
80560;DHT22;69902;42.660;23.366;2023-05-07T10:06:36;24.20;41.20
80560;DHT22;69902;42.660;23.366;2023-05-07T10:09:06;24.30;41.00
80560;DHT22;69902;42.660;23.366;2023-05-07T10:11:35;24.30;38.80
80560;DHT22;69902;42.660;23.366;2023-05-07T10:14:02;24.20;40.80
80560;DHT22;69902;42.660;23.366;2023-05-07T10:16:31;23.90;34.60
80560;DHT22;69902;42.660;23.366;2023-05-07T10:18:58;23.60;35.70
80560;DHT22;69902;42.660;23.366;2023-05-07T10:21:24;23.30;36.10
80560;DHT22;69902;42.660;23.366;2023-05-07T10:23:59;23.30;38.90
80560;DHT22;69902;42.660;23.366;2023-05-07T10:26:30;23.50;38.50
80560;DHT22;69902;42.660;23.366;2023-05-07T10:29:07;23.60;37.20
80560;DHT22;69902;42.660;23.366;2023-05-07T10:34:16;23.70;41.10
80560;DHT22;69902;42.660;23.366;2023-05-07T10:36:43;23.80;41.20
80560;DHT22;69902;42.660;23.366;2023-05-07T10:39:09;23.90;38.00
80560;DHT22;69902;42.660;23.366;2023-05-07T10:41:35;23.60;36.40
80560;DHT22;69902;42.660;23.366;2023-05-07T10:44:02;23.70;40.90
80560;DHT22;69902;42.660;23.366;2023-05-07T10:46:28;23.80;39.80
80560;DHT22;69902;42.660;23.366;2023-05-07T10:51:27;23.40;36.80
80560;DHT22;69902;42.660;23.366;2023-05-07T10:56:37;23.70;41.00
80560;DHT22;69902;42.660;23.366;2023-05-07T11:02:03;23.40;40.20
80560;DHT22;69902;42.660;23.366;2023-05-07T11:04:30;23.60;41.00
80560;DHT22;69902;42.660;23.366;2023-05-07T11:10:00;23.20;36.40
80560;DHT22;69902;42.660;23.366;2023-05-07T11:15:09;23.00;35.10
80560;DHT22;69902;42.660;23.366;2023-05-07T11:17:51;22.80;35.60
80560;DHT22;69902;42.660;23.366;2023-05-07T11:20:18;23.10;39.20
80560;DHT22;69902;42.660;23.366;2023-05-07T11:22:44;23.30;40.30
80560;DHT22;69902;42.660;23.366;2023-05-07T11:25:10;23.50;40.50
80560;DHT22;69902;42.660;23.366;2023-05-07T11:27:37;23.50;36.20
80560;DHT22;69902;42.660;23.366;2023-05-07T11:30:03;23.50;39.70
80560;DHT22;69902;42.660;23.366;2023-05-07T11:32:30;23.50;40.00
80560;DHT22;69902;42.660;23.366;2023-05-07T11:34:58;23.40;36.80
80560;DHT22;69902;42.660;23.366;2023-05-07T11:37:25;23.40;40.50
80560;DHT22;69902;42.660;23.366;2023-05-07T11:40:03;23.60;39.20
80560;DHT22;69902;42.660;23.366;2023-05-07T11:42:30;23.60;40.50
80560;DHT22;69902;42.660;23.366;2023-05-07T11:44:57;23.60;40.30
80560;DHT22;69902;42.660;23.366;2023-05-07T11:47:22;23.70;40.00
80560;DHT22;69902;42.660;23.366;2023-05-07T11:49:51;23.70;40.00
80560;DHT22;69902;42.660;23.366;2023-05-07T11:52:17;23.60;38.40
80560;DHT22;69902;42.660;23.366;2023-05-07T11:54:58;23.60;39.80
80560;DHT22;69902;42.660;23.366;2023-05-07T11:57:25;23.60;40.00
80560;DHT22;69902;42.660;23.366;2023-05-07T11:59:55;23.70;38.10
80560;DHT22;69902;42.660;23.366;2023-05-07T12:02:21;23.50;39.20
80560;DHT22;69902;42.660;23.366;2023-05-07T12:04:46;23.60;40.00
80560;DHT22;69902;42.660;23.366;2023-05-07T12:07:12;23.50;39.50
80560;DHT22;69902;42.660;23.366;2023-05-07T12:09:42;23.40;35.60
80560;DHT22;69902;42.660;23.366;2023-05-07T12:12:08;23.40;39.00
80560;DHT22;69902;42.660;23.366;2023-05-07T12:14:41;23.60;40.10
80560;DHT22;69902;42.660;23.366;2023-05-07T12:17:11;23.60;40.00
80560;DHT22;69902;42.660;23.366;2023-05-07T12:19:38;23.70;40.10
80560;DHT22;69902;42.660;23.366;2023-05-07T12:22:05;23.70;40.30
80560;DHT22;69902;42.660;23.366;2023-05-07T12:24:56;23.70;38.80
80560;DHT22;69902;42.660;23.366;2023-05-07T12:27:22;23.60;40.10
80560;DHT22;69902;42.660;23.366;2023-05-07T12:29:49;23.60;38.80
80560;DHT22;69902;42.660;23.366;2023-05-07T12:32:21;23.40;38.00
80560;DHT22;69902;42.660;23.366;2023-05-07T12:34:50;23.50;40.50
80560;DHT22;69902;42.660;23.366;2023-05-07T12:37:16;23.50;40.50
80560;DHT22;69902;42.660;23.366;2023-05-07T12:39:47;23.50;40.30
80560;DHT22;69902;42.660;23.366;2023-05-07T12:42:19;23.50;36.10
80560;DHT22;69902;42.660;23.366;2023-05-07T12:44:46;23.40;39.70
80560;DHT22;69902;42.660;23.366;2023-05-07T12:47:12;23.50;40.60
80560;DHT22;69902;42.660;23.366;2023-05-07T12:49:38;23.60;40.80
80560;DHT22;69902;42.660;23.366;2023-05-07T12:52:04;23.50;40.70
80560;DHT22;69902;42.660;23.366;2023-05-07T12:54:36;23.60;40.70
80560;DHT22;69902;42.660;23.366;2023-05-07T12:57:08;23.60;40.80
80560;DHT22;69902;42.660;23.366;2023-05-07T12:59:41;23.20;35.10
80560;DHT22;69902;42.660;23.366;2023-05-07T13:02:08;23.10;37.70
80560;DHT22;69902;42.660;23.366;2023-05-07T13:04:34;23.20;38.70
80560;DHT22;69902;42.660;23.366;2023-05-07T13:07:01;23.20;38.20
80560;DHT22;69902;42.660;23.366;2023-05-07T13:09:26;23.30;40.80
80560;DHT22;69902;42.660;23.366;2023-05-07T13:11:54;23.30;35.40
80560;DHT22;69902;42.660;23.366;2023-05-07T13:14:20;23.30;38.20
80560;DHT22;69902;42.660;23.366;2023-05-07T13:16:49;23.30;37.40
80560;DHT22;69902;42.660;23.366;2023-05-07T13:19:14;23.40;38.70
80560;DHT22;69902;42.660;23.366;2023-05-07T13:21:40;23.40;40.20
80560;DHT22;69902;42.660;23.366;2023-05-07T13:24:06;23.40;35.30
80560;DHT22;69902;42.660;23.366;2023-05-07T13:26:32;23.40;37.70
80560;DHT22;69902;42.660;23.366;2023-05-07T13:28:58;23.30;35.40
80560;DHT22;69902;42.660;23.366;2023-05-07T13:31:24;23.10;32.40
80560;DHT22;69902;42.660;23.366;2023-05-07T13:33:50;23.10;33.80
80560;DHT22;69902;42.660;23.366;2023-05-07T13:36:16;23.10;35.70
80560;DHT22;69902;42.660;23.366;2023-05-07T13:38:41;23.20;39.50
80560;DHT22;69902;42.660;23.366;2023-05-07T13:41:07;23.30;39.30
80560;DHT22;69902;42.660;23.366;2023-05-07T13:43:32;23.40;39.90
80560;DHT22;69902;42.660;23.366;2023-05-07T13:45:59;23.40;39.80
80560;DHT22;69902;42.660;23.366;2023-05-07T13:48:25;23.30;38.20
80560;DHT22;69902;42.660;23.366;2023-05-07T13:50:51;23.30;35.70
80560;DHT22;69902;42.660;23.366;2023-05-07T13:53:17;23.20;39.60
80560;DHT22;69902;42.660;23.366;2023-05-07T13:55:44;23.30;40.10
80560;DHT22;69902;42.660;23.366;2023-05-07T13:58:10;23.30;35.40
80560;DHT22;69902;42.660;23.366;2023-05-07T14:00:36;23.20;38.80
80560;DHT22;69902;42.660;23.366;2023-05-07T14:03:04;23.20;36.30
80560;DHT22;69902;42.660;23.366;2023-05-07T14:05:30;23.20;39.70
80560;DHT22;69902;42.660;23.366;2023-05-07T14:07:58;23.20;40.20
80560;DHT22;69902;42.660;23.366;2023-05-07T14:10:24;23.30;37.00
80560;DHT22;69902;42.660;23.366;2023-05-07T14:12:50;23.20;36.40
80560;DHT22;69902;42.660;23.366;2023-05-07T14:15:16;23.10;35.10
80560;DHT22;69902;42.660;23.366;2023-05-07T14:17:43;23.00;35.20
80560;DHT22;69902;42.660;23.366;2023-05-07T14:20:09;23.00;36.20
80560;DHT22;69902;42.660;23.366;2023-05-07T14:22:36;22.90;34.60
80560;DHT22;69902;42.660;23.366;2023-05-07T14:25:01;22.90;33.60
80560;DHT22;69902;42.660;23.366;2023-05-07T14:27:27;22.90;38.00
80560;DHT22;69902;42.660;23.366;2023-05-07T14:29:53;22.90;34.20
80560;DHT22;69902;42.660;23.366;2023-05-07T14:32:18;22.90;39.10
80560;DHT22;69902;42.660;23.366;2023-05-07T14:34:45;23.10;40.00
80560;DHT22;69902;42.660;23.366;2023-05-07T14:37:10;23.20;40.20
80560;DHT22;69902;42.660;23.366;2023-05-07T14:39:36;23.20;40.10
80560;DHT22;69902;42.660;23.366;2023-05-07T14:42:02;23.30;40.20
80560;DHT22;69902;42.660;23.366;2023-05-07T14:44:28;23.10;36.70
80560;DHT22;69902;42.660;23.366;2023-05-07T14:46:54;23.10;39.40
80560;DHT22;69902;42.660;23.366;2023-05-07T14:49:20;23.20;40.40
80560;DHT22;69902;42.660;23.366;2023-05-07T14:51:46;23.20;40.30
80560;DHT22;69902;42.660;23.366;2023-05-07T14:54:13;23.30;38.60
80560;DHT22;69902;42.660;23.366;2023-05-07T14:56:39;23.20;37.70
80560;DHT22;69902;42.660;23.366;2023-05-07T14:59:05;23.20;39.80
80560;DHT22;69902;42.660;23.366;2023-05-07T15:01:31;23.20;40.20
80560;DHT22;69902;42.660;23.366;2023-05-07T15:03:57;23.20;39.90
80560;DHT22;69902;42.660;23.366;2023-05-07T15:06:23;23.10;34.80
80560;DHT22;69902;42.660;23.366;2023-05-07T15:08:49;23.00;35.80
80560;DHT22;69902;42.660;23.366;2023-05-07T15:11:15;22.90;37.00
80560;DHT22;69902;42.660;23.366;2023-05-07T15:13:42;23.10;40.10
80560;DHT22;69902;42.660;23.366;2023-05-07T15:16:08;23.10;40.00
80560;DHT22;69902;42.660;23.366;2023-05-07T15:18:33;23.20;40.10
80560;DHT22;69902;42.660;23.366;2023-05-07T15:20:59;23.20;40.30
80560;DHT22;69902;42.660;23.366;2023-05-07T15:23:25;23.10;36.60
80560;DHT22;69902;42.660;23.366;2023-05-07T15:25:52;23.10;39.70
80560;DHT22;69902;42.660;23.366;2023-05-07T15:28:17;23.10;39.40